createdAt,value
2023-04-03T00:02:00.103Z,8.51
2023-04-03T00:06:53.948Z,8.49
2023-04-03T00:11:47.773Z,8.47
2023-04-03T00:16:38.427Z,8.24
2023-04-03T00:21:28.913Z,8.05
2023-04-03T00:26:19.815Z,8.05
2023-04-03T00:31:12.766Z,8.03
2023-04-03T00:36:03.713Z,8.16
2023-04-03T00:40:54.557Z,8.12
2023-04-03T00:45:47.101Z,7.91
2023-04-03T00:50:42.804Z,8.03
2023-04-03T00:55:34.268Z,8.00
2023-04-03T01:00:28.007Z,7.90
2023-04-03T01:05:20.920Z,7.90
2023-04-03T01:10:17.578Z,7.85
2023-04-03T01:15:12.176Z,7.82
2023-04-03T01:20:19.731Z,7.65
2023-04-03T01:25:10.701Z,7.68
2023-04-03T01:30:04.967Z,7.66
2023-04-03T01:34:58.709Z,7.66
2023-04-03T01:39:50.844Z,7.43
2023-04-03T01:44:41.771Z,7.46
2023-04-03T01:49:32.832Z,7.42
2023-04-03T01:54:28.723Z,7.42
2023-04-03T01:59:20.840Z,7.40
2023-04-03T02:04:12.009Z,7.26
2023-04-03T02:09:03.005Z,7.19
2023-04-03T02:13:57.371Z,7.17
2023-04-03T02:18:48.633Z,7.10
2023-04-03T02:23:43.297Z,7.07
2023-04-03T02:28:34.200Z,7.11
2023-04-03T02:33:29.595Z,7.05
2023-04-03T02:38:22.672Z,7.03
2023-04-03T02:43:13.700Z,7.16
2023-04-03T02:48:16.736Z,7.08
2023-04-03T02:53:10.764Z,7.06
2023-04-03T02:58:04.014Z,7.02
2023-04-03T03:02:56.037Z,6.92
2023-04-03T03:07:49.874Z,6.56
2023-04-03T03:12:43.449Z,6.65
2023-04-03T03:17:33.935Z,6.61
2023-04-03T03:22:24.719Z,6.57
2023-04-03T03:27:17.900Z,6.55
2023-04-03T03:32:12.205Z,6.47
2023-04-03T03:37:02.745Z,6.44
2023-04-03T03:41:55.173Z,6.49
2023-04-03T03:46:46.522Z,6.38
2023-04-03T03:51:41.876Z,6.53
2023-04-03T03:56:32.820Z,6.60
2023-04-03T04:01:23.958Z,6.54
2023-04-03T04:06:15.911Z,6.57
2023-04-03T04:11:09.799Z,6.50
2023-04-03T04:16:01.288Z,6.52
2023-04-03T04:20:53.642Z,6.50
2023-04-03T04:25:48.176Z,6.45
2023-04-03T04:35:34.635Z,6.42
2023-04-03T04:40:27.338Z,6.42
2023-04-03T04:45:19.154Z,6.42
2023-04-03T04:50:15.201Z,6.40
2023-04-03T04:55:07.648Z,6.42
2023-04-03T04:59:58.803Z,6.32
2023-04-03T05:04:51.878Z,6.30
2023-04-03T05:09:49.839Z,6.27
2023-04-03T05:14:46.045Z,6.18
2023-04-03T05:19:36.668Z,6.06
2023-04-03T05:24:29.352Z,6.09
2023-04-03T05:29:22.349Z,6.06
2023-04-03T05:34:14.111Z,5.99
2023-04-03T05:39:05.458Z,5.79
2023-04-03T05:43:57.936Z,5.71
2023-04-03T05:48:52.736Z,5.78
2023-04-03T05:53:47.745Z,5.81
2023-04-03T05:58:38.704Z,5.81
2023-04-03T06:03:30.463Z,5.88
2023-04-03T06:08:25.286Z,5.87
2023-04-03T06:13:17.212Z,5.85
2023-04-03T06:18:08.954Z,5.89
2023-04-03T06:23:00.670Z,6.03
2023-04-03T06:27:56.979Z,6.11
2023-04-03T06:32:47.342Z,6.14
2023-04-03T06:37:37.985Z,6.32
2023-04-03T06:42:28.950Z,6.27
2023-04-03T06:47:30.669Z,6.32
2023-04-03T06:52:21.317Z,6.42
2023-04-03T06:57:11.782Z,6.49
2023-04-03T07:02:03.097Z,6.66
2023-04-03T07:06:56.428Z,6.76
2023-04-03T07:11:46.750Z,6.94
2023-04-03T07:16:38.287Z,6.80
2023-04-03T07:21:30.986Z,6.89
2023-04-03T07:26:27.040Z,6.89
2023-04-03T07:31:18.562Z,7.03
2023-04-03T07:36:09.653Z,7.18
2023-04-03T07:41:00.901Z,7.13
2023-04-03T07:45:55.725Z,7.22
2023-04-03T07:50:46.921Z,7.37
2023-04-03T07:55:42.050Z,7.39
2023-04-03T08:00:35.352Z,7.51
2023-04-03T08:05:28.755Z,7.44
2023-04-03T08:10:20.989Z,7.42
2023-04-03T08:15:12.645Z,7.69
2023-04-03T08:20:06.216Z,7.78
2023-04-03T08:25:00.129Z,7.83
2023-04-03T08:29:55.037Z,7.86
2023-04-03T08:34:45.729Z,7.93
2023-04-03T08:39:40.294Z,8.09
2023-04-03T08:44:43.891Z,8.32
2023-04-03T08:49:41.584Z,8.91
2023-04-03T08:54:38.629Z,9.83
2023-04-03T08:59:36.483Z,10.86
2023-04-03T09:04:36.384Z,11.85
2023-04-03T09:09:35.485Z,12.62
2023-04-03T09:14:30.617Z,13.21
2023-04-03T09:19:25.452Z,13.62
2023-04-03T09:24:21.333Z,14.11
2023-04-03T09:29:14.522Z,14.57
2023-04-03T09:34:08.195Z,14.98
2023-04-03T09:39:07.408Z,14.69
2023-04-03T09:44:02.917Z,14.49
2023-04-03T09:49:07.357Z,15.02
2023-04-03T09:54:01.295Z,14.77
2023-04-03T09:58:53.059Z,15.10
2023-04-03T10:03:48.120Z,15.36
2023-04-03T10:08:39.236Z,15.47
2023-04-03T10:13:29.811Z,15.49
2023-04-03T10:18:32.099Z,15.98
2023-04-03T10:23:32.656Z,16.25
2023-04-03T10:28:29.543Z,16.61
2023-04-03T10:33:28.098Z,16.62
2023-04-03T10:38:29.495Z,16.50
2023-04-03T10:43:22.606Z,16.22
2023-04-03T10:48:18.613Z,16.19
2023-04-03T10:53:12.481Z,15.76
2023-04-03T10:58:06.179Z,15.42
2023-04-03T11:02:59.852Z,15.03
2023-04-03T11:07:53.359Z,14.80
2023-04-03T11:12:48.058Z,14.30
2023-04-03T11:17:48.057Z,14.37
2023-04-03T11:22:42.439Z,14.37
2023-04-03T11:27:35.654Z,14.32
2023-04-03T11:32:34.343Z,14.38
2023-04-03T11:37:36.820Z,14.22
2023-04-03T11:42:35.523Z,14.17
2023-04-03T11:47:41.048Z,14.41
2023-04-03T11:52:48.154Z,14.37
2023-04-03T11:57:51.529Z,14.63
2023-04-03T12:02:53.963Z,14.96
2023-04-03T12:07:45.686Z,14.97
2023-04-03T12:12:39.390Z,14.87
2023-04-03T12:17:37.580Z,14.60
2023-04-03T12:22:31.550Z,14.58
2023-04-03T12:27:49.193Z,14.28
2023-04-03T12:32:48.326Z,14.46
2023-04-03T12:37:57.551Z,14.55
2023-04-03T12:43:02.970Z,14.90
2023-04-03T12:47:58.521Z,14.91
2023-04-03T12:52:52.518Z,14.95
2023-04-03T12:57:43.723Z,14.60
2023-04-03T13:02:35.752Z,14.27
2023-04-03T13:07:36.095Z,14.46
2023-04-03T13:12:31.827Z,14.60
2023-04-03T13:17:22.893Z,14.75
2023-04-03T13:22:29.385Z,14.78
2023-04-03T13:27:24.396Z,14.61
2023-04-03T13:32:22.237Z,14.78
2023-04-03T13:37:24.670Z,14.63
2023-04-03T13:42:20.558Z,14.94
2023-04-03T13:47:27.599Z,15.18
2023-04-03T13:52:29.793Z,15.17
2023-04-03T13:57:25.896Z,15.11
2023-04-03T14:02:23.266Z,14.98
2023-04-03T14:07:17.607Z,15.00
2023-04-03T14:12:17.999Z,15.01
2023-04-03T14:17:25.031Z,14.83
2023-04-03T14:22:23.991Z,14.69
2023-04-03T14:27:19.535Z,14.84
2023-04-03T14:36:22.155Z,10.59
2023-04-03T14:41:17.312Z,10.70
2023-04-03T14:46:08.808Z,10.62
2023-04-03T14:51:05.592Z,10.68
2023-04-03T14:55:59.400Z,10.82
2023-04-03T15:00:51.350Z,10.81
2023-04-03T15:05:41.838Z,10.88
2023-04-03T15:10:34.474Z,10.74
2023-04-03T15:15:28.107Z,10.51
2023-04-03T15:20:20.952Z,10.70
2023-04-03T15:25:16.707Z,10.37
2023-04-03T15:30:07.955Z,10.44
2023-04-03T15:35:01.569Z,9.96
2023-04-03T15:39:52.545Z,9.90
2023-04-03T15:44:43.206Z,10.19
2023-04-03T15:49:34.407Z,10.37
2023-04-03T15:54:30.928Z,10.11
2023-04-03T15:59:21.451Z,10.30
2023-04-03T16:04:13.732Z,10.31
2023-04-03T16:09:08.672Z,10.47
2023-04-03T16:14:04.735Z,10.29
2023-04-03T16:18:55.523Z,10.19
2023-04-03T16:23:48.291Z,10.30
2023-04-03T16:28:39.686Z,10.43
2023-04-03T16:33:38.148Z,10.51
2023-04-03T16:38:36.368Z,10.41
2023-04-03T16:43:28.573Z,10.48
2023-04-03T16:48:19.504Z,10.37
2023-04-03T16:53:13.004Z,10.29
2023-04-03T16:58:05.737Z,10.31
2023-04-03T17:02:56.789Z,10.25
2023-04-03T17:07:48.150Z,9.93
2023-04-03T17:12:42.341Z,9.95
2023-04-03T17:17:33.443Z,9.78
2023-04-03T17:22:27.724Z,9.80
2023-04-03T17:27:19.788Z,9.74
2023-04-03T17:32:13.692Z,9.47
2023-04-03T17:37:04.601Z,9.50
2023-04-03T17:41:55.866Z,9.32
2023-04-03T17:46:47.521Z,9.20
2023-04-03T17:51:42.499Z,9.01
2023-04-03T17:56:33.068Z,8.97
2023-04-03T18:01:25.832Z,8.79
2023-04-03T18:06:18.638Z,8.54
2023-04-03T18:11:14.333Z,8.31
2023-04-03T18:16:05.462Z,8.28
2023-04-03T18:20:56.821Z,8.18
2023-04-03T18:25:47.726Z,8.05
2023-04-03T18:30:42.045Z,7.92
2023-04-03T18:35:36.035Z,7.85
2023-04-03T18:40:29.068Z,7.78
2023-04-03T18:45:21.454Z,7.71
2023-04-03T18:50:18.680Z,7.53
2023-04-03T18:55:12.044Z,7.37
2023-04-03T19:00:05.431Z,7.21
2023-04-03T19:04:57.392Z,7.11
2023-04-03T19:09:52.802Z,7.10
2023-04-03T19:14:43.816Z,7.07
2023-04-03T19:19:34.652Z,6.87
2023-04-03T19:24:28.135Z,6.83
2023-04-03T19:29:21.648Z,6.75
2023-04-03T19:34:12.354Z,6.60
2023-04-03T19:39:03.433Z,6.50
2023-04-03T19:43:55.100Z,6.46
2023-04-03T19:48:52.841Z,6.35
2023-04-03T19:53:43.748Z,6.29
2023-04-03T19:58:36.043Z,6.08
2023-04-03T20:03:26.983Z,5.98
2023-04-03T20:08:22.675Z,5.87
2023-04-03T20:13:16.209Z,5.78
2023-04-03T20:18:07.540Z,5.69
2023-04-03T20:22:59.067Z,5.60
2023-04-03T20:27:54.764Z,5.55
2023-04-03T20:32:45.340Z,5.48
2023-04-03T20:37:37.339Z,5.49
2023-04-03T20:42:28.369Z,5.25
2023-04-03T20:47:25.690Z,5.33
2023-04-03T20:52:16.814Z,5.32
2023-04-03T20:57:08.102Z,5.24
2023-04-03T21:02:01.403Z,5.23
2023-04-03T21:07:13.073Z,5.13
2023-04-03T21:12:18.488Z,5.16
2023-04-03T21:17:11.883Z,5.20
2023-04-03T21:22:05.980Z,5.15
2023-04-03T21:26:57.061Z,5.20
2023-04-03T21:31:53.063Z,5.17
2023-04-03T21:36:44.330Z,5.11
2023-04-03T21:41:37.915Z,4.96
2023-04-03T21:46:29.445Z,4.90
2023-04-03T21:51:20.753Z,4.83
2023-04-03T21:56:12.106Z,4.84
2023-04-03T22:01:12.260Z,4.79
2023-04-03T22:06:03.020Z,4.73
2023-04-03T22:11:02.828Z,4.69
2023-04-03T22:15:54.492Z,4.63
2023-04-03T22:20:49.964Z,4.51
2023-04-03T22:25:41.155Z,4.54
2023-04-03T22:30:32.028Z,4.53
2023-04-03T22:35:27.509Z,4.49
2023-04-03T22:40:21.767Z,4.48
2023-04-03T22:45:12.767Z,4.40
2023-04-03T22:50:04.534Z,4.38
2023-04-03T22:54:56.668Z,4.40
2023-04-03T22:59:53.902Z,4.32
2023-04-03T23:04:45.473Z,4.33
2023-04-03T23:09:36.306Z,4.36
2023-04-03T23:14:27.967Z,4.36
2023-04-03T23:19:22.590Z,4.27
2023-04-03T23:24:13.448Z,4.26
2023-04-03T23:29:04.968Z,4.23
2023-04-03T23:33:55.778Z,4.21
2023-04-03T23:38:48.991Z,4.27
2023-04-03T23:43:42.194Z,4.25
2023-04-03T23:48:32.910Z,4.22
2023-04-03T23:53:23.351Z,4.15
2023-04-03T23:58:16.895Z,4.03
